Time;durP1;ratioP1;P1;durP2;ratioP2;P2;SDS_P1;SDS_P2;PMS_P1;PMS_P2;Temp;Humidity;BMP_temperature;BMP_pressure;BME280_temperature;BME280_humidity;BME280_pressure;Samples;Min_cycle;Max_cycle;Signal;HPM_P1;HPM_P2
2023/01/17 00:01:12;;;;;;;1.83;1.73;;;;;;;19.44;49.60;94601.19;5027730;28;20217;-89
2023/01/17 00:11:55;;;;;;;2.60;2.03;;;;;;;19.57;49.66;94615.53;5023659;28;20272;-90
2023/01/17 00:14:22;;;;;;;2.37;1.90;;;;;;;19.34;49.42;94576.69;5028456;28;20218;-90
2023/01/17 00:16:48;;;;;;;1.80;1.70;;;;;;;19.42;49.57;94593.56;5015683;28;20182;-89
2023/01/17 01:34:10;;;;;;;2.13;1.93;;;;;;;19.27;49.79;94654.81;5029004;28;20265;-92
2023/01/17 01:36:37;;;;;;;1.53;1.40;;;;;;;18.60;49.59;94548.38;5025736;28;20209;-90
2023/01/17 01:39:03;;;;;;;1.40;1.30;;;;;;;19.35;49.68;94670.03;5008928;28;20210;-90
2023/01/17 01:41:30;;;;;;;1.50;1.40;;;;;;;18.42;49.62;94531.56;5011854;28;20221;-90
2023/01/17 01:43:57;;;;;;;1.60;1.50;;;;;;;19.64;49.46;94721.59;5008206;28;20199;-91
2023/01/17 01:46:39;;;;;;;1.43;1.33;;;;;;;19.48;49.84;94700.47;5027863;28;20180;-90
2023/01/17 01:49:23;;;;;;;1.70;1.60;;;;;;;19.76;49.71;94755.47;5028693;28;20218;-90
2023/01/17 01:51:52;;;;;;;2.30;1.83;;;;;;;19.27;49.60;94661.63;5008928;28;20213;-89
2023/01/17 01:54:21;;;;;;;1.93;1.80;;;;;;;19.49;49.80;94701.34;5016527;28;20211;-90
2023/01/17 01:56:48;;;;;;;2.03;1.70;;;;;;;19.45;49.89;94710.69;5020499;28;20183;-90
2023/01/17 01:59:15;;;;;;;1.53;1.43;;;;;;;19.59;49.63;94734.38;5007262;28;20211;-89
2023/01/17 02:01:41;;;;;;;2.10;1.60;;;;;;;18.86;49.87;94616.03;4988899;28;20215;-89
2023/01/17 02:04:08;;;;;;;1.70;1.60;;;;;;;11.46;49.42;93400.25;5034257;22;20188;-84
2023/01/17 02:06:59;;;;;;;1.80;1.50;;;;;;;19.75;49.87;94755.47;5002863;28;20220;-86
2023/01/17 02:09:25;;;;;;;1.50;1.40;;;;;;;18.59;49.82;94559.41;5019333;28;20634;-85
2023/01/17 02:11:55;;;;;;;1.40;1.30;;;;;;;18.96;49.91;94621.91;5005634;28;20209;-85
2023/01/17 02:14:25;;;;;;;1.43;1.33;;;;;;;18.85;49.92;94604.16;4998098;28;20241;-86
2023/01/17 02:17:05;;;;;;;1.60;1.50;;;;;;;19.44;49.79;94703.91;5005326;28;20244;-84
2023/01/17 02:19:58;;;;;;;1.40;1.30;;;;;;;19.75;49.80;94756.31;5003610;28;20245;-86
2023/01/17 02:22:43;;;;;;;1.47;1.37;;;;;;;19.76;49.94;94754.63;5007955;28;20225;-86
2023/01/17 02:25:32;;;;;;;1.70;1.60;;;;;;;19.76;49.87;94752.06;5008110;28;20233;-86
2023/01/17 02:28:17;;;;;;;1.50;1.40;;;;;;;19.75;49.89;94753.75;5005370;28;20202;-86
2023/01/17 02:31:13;;;;;;;1.40;1.30;;;;;;;19.75;49.75;94748.66;5006850;28;20206;-84
2023/01/17 02:34:09;;;;;;;1.30;1.20;;;;;;;19.27;49.77;94667.53;4997740;28;20666;-86
2023/01/17 02:36:40;;;;;;;1.70;1.60;;;;;;;19.15;49.77;94648.91;4986506;28;20558;-86
2023/01/17 02:39:12;;;;;;;1.40;1.30;;;;;;;19.76;49.77;94752.06;5011779;28;20233;-87
2023/01/17 02:41:40;;;;;;;1.50;1.40;;;;;;;18.73;49.73;94577.94;5010148;28;20222;-85
2023/01/17 02:44:08;;;;;;;1.60;1.50;;;;;;;18.90;49.57;94617.72;4970922;28;20636;-86
2023/01/17 02:46:50;;;;;;;1.50;1.40;;;;;;;19.25;49.77;94668.38;4971474;28;20252;-86
2023/01/17 02:49:23;;;;;;;2.70;1.40;;;;;;;19.29;49.65;94681.09;4970834;28;20559;-86
2023/01/17 02:52:11;;;;;;;1.60;1.50;;;;;;;19.75;49.84;94753.75;4976089;28;20202;-86
2023/01/17 02:54:50;;;;;;;1.57;1.47;;;;;;;19.74;49.71;94757.16;5005888;28;20262;-86
2023/01/17 02:57:34;;;;;;;1.80;1.60;;;;;;;19.74;49.69;94758.88;5009138;28;20202;-86
2023/01/17 03:00:16;;;;;;;1.87;1.53;;;;;;;19.21;49.67;94665.00;5001928;28;20213;-86
2023/01/17 03:03:21;;;;;;;1.60;1.40;;;;;;;19.73;49.73;94763.13;5006205;28;20666;-86
2023/01/17 03:05:51;;;;;;;1.40;1.30;;;;;;;19.44;50.02;94720.88;4995116;28;20603;-86
2023/01/17 03:08:17;;;;;;;1.60;1.50;;;;;;;19.16;49.69;94673.53;4971856;28;20234;-86
2023/01/17 03:10:44;;;;;;;1.47;1.30;;;;;;;19.74;49.75;94779.25;4997476;28;20599;-84
2023/01/17 03:13:10;;;;;;;1.60;1.50;;;;;;;19.75;49.28;94786.06;5007517;28;20234;-86
2023/01/17 03:15:38;;;;;;;1.40;1.30;;;;;;;19.74;49.75;94771.59;5007385;28;20229;-86
2023/01/17 03:18:07;;;;;;;1.40;1.30;;;;;;;19.42;49.72;94741.25;4994107;28;20203;-86
2023/01/17 03:20:34;;;;;;;1.30;1.30;;;;;;;19.74;49.86;94823.41;4983584;28;20295;-86
2023/01/17 03:23:01;;;;;;;1.53;1.30;;;;;;;18.42;49.82;94604.44;5000094;28;20302;-87
2023/01/17 03:25:29;;;;;;;1.50;1.40;;;;;;;19.75;49.94;94791.16;4998655;28;20813;-86
2023/01/17 03:28:02;;;;;;;1.30;1.20;;;;;;;19.76;49.79;94792.84;4992519;28;20222;-86
2023/01/17 03:30:29;;;;;;;1.40;1.30;;;;;;;17.85;50.10;94471.69;5008062;28;20233;-87
2023/01/17 03:32:55;;;;;;;1.50;1.40;;;;;;;19.05;50.00;94673.59;4992942;28;20206;-86
2023/01/17 03:35:22;;;;;;;1.40;1.20;;;;;;;19.75;49.74;94797.06;4974048;28;20231;-86
2023/01/17 03:37:51;;;;;;;1.40;1.30;;;;;;;18.10;49.77;94520.69;5009351;28;20215;-86
2023/01/17 03:40:17;;;;;;;1.30;1.20;;;;;;;18.10;49.73;94518.13;4990943;28;20718;-86
2023/01/17 03:42:44;;;;;;;1.40;1.30;;;;;;;19.76;49.69;94795.38;4996332;28;20277;-86
2023/01/17 03:45:11;;;;;;;1.20;1.10;;;;;;;19.34;49.84;94732.00;4992158;28;20281;-86
2023/01/17 03:47:37;;;;;;;1.40;1.30;;;;;;;19.76;49.31;94793.69;4976557;28;20206;-86
2023/01/17 03:50:04;;;;;;;1.53;1.27;;;;;;;19.76;49.66;94797.94;5013705;28;20260;-86
2023/01/17 03:52:31;;;;;;;1.37;1.30;;;;;;;19.76;49.68;94803.03;5009854;28;20252;-86
2023/01/17 03:54:58;;;;;;;1.60;1.30;;;;;;;19.22;49.75;94714.22;4994726;28;20793;-86
2023/01/17 03:57:28;;;;;;;1.47;1.37;;;;;;;19.19;49.67;94707.41;4989476;28;20293;-86
2023/01/17 03:59:54;;;;;;;1.50;1.40;;;;;;;19.75;49.21;94799.63;4987866;28;20683;-87
2023/01/17 04:02:21;;;;;;;1.50;1.40;;;;;;;19.10;49.62;94693.94;5012589;28;20249;-85
2023/01/17 04:04:47;;;;;;;1.37;1.27;;;;;;;19.12;49.78;94722.75;4982608;28;20307;-86
2023/01/17 04:07:17;;;;;;;1.37;1.27;;;;;;;19.75;49.61;94806.44;4979131;28;20289;-86
2023/01/17 04:09:44;;;;;;;1.47;1.30;;;;;;;19.74;49.63;94807.28;4991073;28;20256;-86
2023/01/17 04:12:10;;;;;;;1.33;1.23;;;;;;;19.75;49.86;94809.00;5000573;28;20202;-86
2023/01/17 04:14:37;;;;;;;1.50;1.40;;;;;;;19.28;49.78;94722.72;4998725;28;20322;-87
2023/01/17 04:17:04;;;;;;;1.40;1.30;;;;;;;18.41;49.74;94585.78;4966197;28;20202;-86
2023/01/17 04:19:30;;;;;;;1.50;1.40;;;;;;;19.75;49.57;94812.34;4988240;28;20294;-86
2023/01/17 04:21:57;;;;;;;1.40;1.30;;;;;;;19.75;49.58;94814.09;4985778;28;20281;-86
2023/01/17 04:24:24;;;;;;;1.37;1.27;;;;;;;19.18;49.70;94702.34;5012150;28;20280;-86
2023/01/17 04:26:50;;;;;;;1.40;1.30;;;;;;;18.57;49.75;94597.56;5004387;28;20682;-85
2023/01/17 04:29:17;;;;;;;1.70;1.40;;;;;;;19.74;49.75;94800.50;4997171;28;20233;-86
2023/01/17 04:31:43;;;;;;;1.30;1.20;;;;;;;19.74;50.56;94800.50;5009403;28;20237;-84
2023/01/17 04:34:10;;;;;;;1.30;1.10;;;;;;;19.08;49.61;94682.91;5009074;28;20321;-86
2023/01/17 04:36:37;;;;;;;1.30;1.20;;;;;;;19.16;49.67;94696.44;4995171;28;20202;-86
2023/01/17 04:39:03;;;;;;;1.10;1.10;;;;;;;19.74;49.71;94803.03;4981326;28;20661;-86
2023/01/17 04:41:30;;;;;;;1.67;1.30;;;;;;;19.75;49.81;94811.53;5009887;28;20236;-86
2023/01/17 04:43:56;;;;;;;1.40;1.30;;;;;;;19.74;49.62;94808.13;5010130;28;20206;-86
2023/01/17 04:46:28;;;;;;;1.27;1.17;;;;;;;18.96;49.76;94677.88;4988414;28;20676;-86
2023/01/17 04:48:55;;;;;;;1.43;1.33;;;;;;;19.36;50.13;94746.41;5011944;28;20665;-86
2023/01/17 04:51:21;;;;;;;1.07;1.07;;;;;;;19.36;49.61;94745.56;5011576;28;20220;-86
2023/01/17 04:53:48;;;;;;;1.33;1.30;;;;;;;19.40;49.97;94754.88;4995239;28;20202;-86
2023/01/17 04:56:14;;;;;;;1.40;1.30;;;;;;;19.58;49.93;94791.25;4971164;28;20241;-85
2023/01/17 04:58:41;;;;;;;1.23;1.13;;;;;;;18.58;49.54;94629.75;5009628;28;20289;-88
2023/01/17 05:01:08;;;;;;;1.40;1.30;;;;;;;19.75;49.63;94824.28;5010148;28;20668;-86
2023/01/17 05:03:35;;;;;;;1.40;1.17;;;;;;;18.33;49.58;94584.09;5005557;28;20210;-86
2023/01/17 05:06:02;;;;;;;1.30;1.20;;;;;;;19.19;49.62;94732.06;4978243;28;20292;-86
2023/01/17 05:08:28;;;;;;;1.40;1.30;;;;;;;19.75;49.63;94829.38;4979449;28;20202;-85
2023/01/17 05:10:55;;;;;;;1.60;1.50;;;;;;;17.33;49.36;94416.88;5002449;28;20235;-85
2023/01/17 05:13:21;;;;;;;1.37;1.27;;;;;;;19.74;49.58;94830.22;4976822;28;20236;-85
2023/01/17 05:15:48;;;;;;;1.40;1.30;;;;;;;19.75;49.66;94831.91;5007571;28;20654;-86
2023/01/17 05:18:18;;;;;;;1.40;1.30;;;;;;;19.74;49.63;94836.16;4989767;28;20227;-86
2023/01/17 05:20:45;;;;;;;1.30;1.20;;;;;;;19.37;49.43;94765.06;5011638;28;20642;-84
2023/01/17 05:23:15;;;;;;;1.43;1.27;;;;;;;17.57;49.52;94490.44;5001034;28;20252;-86
2023/01/17 05:25:43;;;;;;;1.40;1.30;;;;;;;18.60;49.19;94635.69;4986392;28;20226;-86
2023/01/17 05:28:11;;;;;;;1.13;1.13;;;;;;;19.74;49.58;94841.25;4997691;28;20205;-86
2023/01/17 05:30:39;;;;;;;1.40;1.30;;;;;;;19.74;49.58;94840.41;4971362;28;20234;-86
2023/01/17 05:33:09;;;;;;;1.00;1.00;;;;;;;17.68;49.73;94539.47;5002299;28;20258;-86
2023/01/17 05:35:38;;;;;;;1.20;1.10;;;;;;;9.88;49.20;93272.38;5006823;28;20228;-86
2023/01/17 05:38:05;;;;;;;1.53;1.40;;;;;;;18.51;49.48;94691.69;5007667;28;20658;-87
2023/01/17 05:40:34;;;;;;;1.30;1.20;;;;;;;15.87;49.52;94198.41;4992754;28;20202;-86
2023/01/17 05:43:04;;;;;;;1.30;1.20;;;;;;;16.96;49.51;94382.31;5004796;28;20272;-86
2023/01/17 05:45:31;;;;;;;1.53;1.30;;;;;;;17.97;49.43;94549.53;4974655;28;20310;-88
2023/01/17 05:48:00;;;;;;;1.50;1.40;;;;;;;18.86;49.53;94694.88;5011762;28;20305;-87
2023/01/17 05:50:36;;;;;;;1.30;1.17;;;;;;;19.39;49.62;94792.22;4975137;28;20199;-86
2023/01/17 05:53:07;;;;;;;1.80;1.60;;;;;;;19.09;48.15;94740.56;4983807;28;20733;-86
2023/01/17 05:55:41;;;;;;;2.27;1.80;;;;;;;19.74;47.91;94851.44;4985641;28;20269;-85
2023/01/17 05:58:15;;;;;;;1.60;1.50;;;;;;;19.73;48.15;94847.22;5001141;28;20231;-86
2023/01/17 06:00:42;;;;;;;2.07;1.63;;;;;;;19.74;48.28;94850.59;5002603;28;20284;-86
2023/01/17 06:03:09;;;;;;;1.90;1.80;;;;;;;18.85;48.06;94710.16;5000002;28;20261;-86
2023/01/17 06:05:35;;;;;;;1.40;1.30;;;;;;;19.15;48.50;94768.53;4985049;28;20226;-86
2023/01/17 06:08:02;;;;;;;1.63;1.53;;;;;;;19.74;48.62;94866.72;5010487;28;20210;-85
2023/01/17 06:10:28;;;;;;;1.40;1.30;;;;;;;19.04;48.60;94750.78;4999481;28;20273;-85
2023/01/17 06:13:06;;;;;;;2.57;1.83;;;;;;;19.75;48.05;94868.41;4974741;28;20196;-85
2023/01/17 06:15:34;;;;;;;2.20;2.00;;;;;;;19.01;45.75;94750.78;5003261;28;20301;-86
2023/01/17 06:18:05;;;;;;;3.63;3.20;;;;;;;19.72;44.12;94868.44;4994530;28;20233;-85
2023/01/17 06:20:32;;;;;;;6.17;4.70;;;;;;;19.70;42.54;94867.63;5010093;28;20202;-86
2023/01/17 06:23:01;;;;;;;7.97;5.20;;;;;;;19.35;41.94;94812.59;4990752;28;20237;-85
2023/01/17 06:25:27;;;;;;;8.80;6.73;;;;;;;19.30;40.90;94799.06;4992724;28;20727;-87
2023/01/17 06:27:54;;;;;;;11.47;7.97;;;;;;;19.65;39.86;94871.88;4983135;28;20600;-84
2023/01/17 06:30:21;;;;;;;14.83;10.63;;;;;;;18.71;39.76;94710.22;5006719;28;20202;-86
2023/01/17 06:32:51;;;;;;;20.77;13.93;;;;;;;19.03;39.39;94763.50;4968352;28;20205;-83
2023/01/17 06:35:18;;;;;;;21.70;14.47;;;;;;;19.61;38.95;94866.81;4975408;28;20701;-87
2023/01/17 06:37:45;;;;;;;23.67;15.77;;;;;;;19.58;38.52;94859.19;5007669;28;20198;-83
2023/01/17 06:40:11;;;;;;;25.20;16.03;;;;;;;19.58;38.38;94864.28;5004816;28;20205;-87
2023/01/17 06:42:38;;;;;;;21.53;14.30;;;;;;;19.56;38.86;94871.06;5003256;28;20242;-86
2023/01/17 06:45:05;;;;;;;21.37;14.10;;;;;;;18.94;39.66;94766.94;5009739;28;20309;-88
2023/01/17 06:47:31;;;;;;;21.17;14.17;;;;;;;19.54;40.80;94873.63;5010173;28;20665;-87
2023/01/17 06:50:00;;;;;;;25.30;13.87;;;;;;;19.53;41.19;94871.09;4987830;28;20198;-87
2023/01/17 06:52:26;;;;;;;19.13;13.17;;;;;;;19.53;41.52;94866.84;5009809;28;20222;-86
2023/01/17 06:54:53;;;;;;;20.83;12.17;;;;;;;18.89;42.05;94760.19;5010977;28;20605;-90
2023/01/17 06:57:19;;;;;;;19.93;12.63;;;;;;;17.49;42.13;94536.97;5010139;28;20205;-89
2023/01/17 06:59:46;;;;;;;17.43;12.27;;;;;;;17.96;42.63;94601.19;4970315;28;20198;-88
2023/01/17 07:02:13;;;;;;;18.37;13.13;;;;;;;18.96;43.21;94760.16;5010633;28;20229;-88
2023/01/17 07:04:39;;;;;;;16.30;11.00;;;;;;;19.54;43.35;94853.25;5010853;28;20716;-86
2023/01/17 07:07:06;;;;;;;14.60;10.17;;;;;;;18.88;42.30;94735.59;5010651;28;20194;-86
2023/01/17 07:09:32;;;;;;;15.23;10.07;;;;;;;18.62;42.63;94696.72;4991444;28;20224;-85
2023/01/17 07:12:00;;;;;;;12.37;8.10;;;;;;;19.54;41.64;94849.88;4996387;28;20200;-85
2023/01/17 07:14:27;;;;;;;8.77;6.03;;;;;;;18.68;40.09;94705.16;5013755;28;20253;-82
2023/01/17 07:16:54;;;;;;;9.23;6.73;;;;;;;19.53;39.75;94843.94;4995687;28;20289;-84
2023/01/17 07:19:21;;;;;;;10.23;6.97;;;;;;;19.53;40.10;94843.94;4997483;28;20679;-85
2023/01/17 07:21:52;;;;;;;9.57;6.83;;;;;;;19.53;40.71;94850.72;5012639;28;20333;-84
2023/01/17 07:24:19;;;;;;;8.33;6.10;;;;;;;19.52;41.30;94854.97;5005756;28;20234;-85
2023/01/17 07:26:49;;;;;;;9.53;6.73;;;;;;;19.53;41.82;94854.13;5010379;28;20194;-85
2023/01/17 07:29:16;;;;;;;11.07;7.30;;;;;;;19.31;42.15;94809.25;5014469;28;20272;-85
2023/01/17 07:31:42;;;;;;;9.37;6.40;;;;;;;19.54;42.79;94842.25;4997579;28;20657;-85
2023/01/17 07:34:09;;;;;;;8.17;6.30;;;;;;;19.26;42.73;94795.66;5013097;28;20205;-86
2023/01/17 07:36:36;;;;;;;8.37;6.53;;;;;;;19.53;43.15;94830.34;4990504;28;20199;-85
2023/01/17 07:39:02;;;;;;;8.03;5.70;;;;;;;18.79;43.02;94710.19;4993521;28;20199;-85
2023/01/17 07:41:33;;;;;;;7.90;5.40;;;;;;;19.53;43.31;94833.75;5013477;28;20838;-86
2023/01/17 07:44:00;;;;;;;7.00;5.70;;;;;;;19.22;43.60;94788.88;5009304;28;20222;-86
2023/01/17 07:46:26;;;;;;;7.60;5.73;;;;;;;19.23;43.09;94792.28;4994425;28;20681;-85
2023/01/17 07:48:53;;;;;;;8.93;5.97;;;;;;;19.30;43.84;94794.81;5014236;28;20199;-84
2023/01/17 07:51:19;;;;;;;7.47;5.73;;;;;;;19.25;43.84;94809.25;5006308;28;20604;-85
2023/01/17 07:53:46;;;;;;;8.97;6.10;;;;;;;19.56;43.82;94851.56;5013234;28;20675;-85
2023/01/17 07:56:12;;;;;;;8.37;5.93;;;;;;;19.57;44.04;94852.41;5013129;28;20222;-85
2023/01/17 07:58:39;;;;;;;6.47;5.20;;;;;;;18.64;43.97;94693.31;5014719;28;20576;-85
2023/01/17 08:01:10;;;;;;;8.00;5.90;;;;;;;19.58;44.07;94854.09;5013135;28;20203;-85
2023/01/17 08:03:40;;;;;;;7.20;5.60;;;;;;;19.59;44.15;94851.53;5013035;28;20218;-84
2023/01/17 08:06:28;;;;;;;8.40;5.27;;;;;;;19.58;44.16;94837.13;5014007;28;20238;-87
2023/01/17 08:08:57;;;;;;;6.87;5.17;;;;;;;19.59;44.23;94837.94;5001262;28;20250;-84
2023/01/17 08:11:24;;;;;;;7.87;5.10;;;;;;;19.31;43.28;94782.94;5007400;28;20671;-84
2023/01/17 08:13:56;;;;;;;7.73;4.30;;;;;;;19.60;42.91;94837.09;4976858;28;20198;-83
2023/01/17 08:16:23;;;;;;;7.10;5.07;;;;;;;18.99;42.81;94727.06;5009926;28;20207;-84
2023/01/17 08:18:50;;;;;;;5.97;4.87;;;;;;;18.10;43.51;94577.44;4990085;28;20705;-85
2023/01/17 08:21:17;;;;;;;7.93;4.90;;;;;;;18.30;43.60;94612.06;4986262;28;20211;-87
2023/01/17 08:23:47;;;;;;;8.27;4.67;;;;;;;19.06;43.67;94743.13;5004295;28;20228;-86
2023/01/17 08:26:20;;;;;;;5.53;4.80;;;;;;;19.61;43.82;94837.09;5001775;28;20222;-85
2023/01/17 08:28:56;;;;;;;6.83;4.77;;;;;;;19.03;43.76;94741.47;5010976;28;20199;-85
2023/01/17 08:31:23;;;;;;;5.47;4.13;;;;;;;19.61;43.76;94831.16;5008637;28;20649;-85
2023/01/17 08:33:50;;;;;;;5.27;3.83;;;;;;;19.61;43.73;94846.44;5009484;28;20723;-85
2023/01/17 08:36:16;;;;;;;5.27;4.37;;;;;;;18.68;43.67;94666.19;5012187;28;20208;-85
2023/01/17 08:38:43;;;;;;;4.73;4.10;;;;;;;18.44;43.98;94625.63;4988546;28;20198;-85
2023/01/17 08:41:09;;;;;;;5.17;3.90;;;;;;;19.61;44.25;94828.59;4995340;28;20202;-85
2023/01/17 08:43:36;;;;;;;4.60;3.80;;;;;;;19.61;43.83;94815.88;5011751;28;20246;-85
2023/01/17 08:46:05;;;;;;;6.27;4.00;;;;;;;19.23;44.32;94744.75;5012726;28;20230;-85
2023/01/17 08:48:31;;;;;;;5.03;3.80;;;;;;;19.28;44.38;94753.25;4973252;28;20205;-85
2023/01/17 08:51:02;;;;;;;5.13;3.87;;;;;;;19.62;44.65;94809.91;4976336;28;20194;-85
2023/01/17 08:53:29;;;;;;;6.30;4.27;;;;;;;19.61;44.44;94813.31;5000151;28;20237;-85
2023/01/17 08:55:57;;;;;;;5.87;4.10;;;;;;;19.27;44.62;94750.72;5013498;28;20222;-86
2023/01/17 08:58:23;;;;;;;5.20;4.03;;;;;;;19.30;44.68;94759.16;4980823;28;20234;-84
2023/01/17 09:00:50;;;;;;;6.63;3.87;;;;;;;19.62;44.72;94828.59;4969865;28;20574;-85
2023/01/17 09:03:17;;;;;;;8.33;4.17;;;;;;;17.90;44.84;94569.03;5012826;28;20230;-85
2023/01/17 09:05:44;;;;;;;5.17;3.90;;;;;;;19.27;44.66;94771.09;4984849;28;20668;-85
2023/01/17 09:08:11;;;;;;;6.97;3.93;;;;;;;19.63;44.88;94827.72;4978991;28;20202;-85
2023/01/17 09:10:37;;;;;;;4.70;3.90;;;;;;;19.64;44.81;94834.53;5011345;28;20202;-85
2023/01/17 09:13:06;;;;;;;4.67;3.80;;;;;;;18.97;44.83;94722.81;5012437;28;20661;-84
2023/01/17 09:15:33;;;;;;;4.20;3.63;;;;;;;19.64;44.88;94831.97;4983266;28;20582;-85
2023/01/17 09:18:00;;;;;;;5.23;3.73;;;;;;;18.54;45.03;94645.03;5011261;28;20198;-85
2023/01/17 09:20:28;;;;;;;5.23;3.97;;;;;;;19.65;44.68;94841.31;4976874;28;20230;-85
2023/01/17 09:22:56;;;;;;;4.43;3.57;;;;;;;19.28;45.08;94781.25;5010391;28;20218;-85
2023/01/17 09:25:22;;;;;;;4.33;3.40;;;;;;;19.64;45.10;94849.81;4978742;28;20225;-85
2023/01/17 09:27:49;;;;;;;4.27;3.23;;;;;;;19.65;45.31;94858.28;5012045;28;20202;-85
2023/01/17 09:30:16;;;;;;;5.00;3.77;;;;;;;19.65;45.32;94856.59;4986892;28;20582;-85
2023/01/17 09:32:42;;;;;;;3.97;3.57;;;;;;;19.31;45.40;94793.13;5010776;28;20198;-85
2023/01/17 09:35:09;;;;;;;4.33;3.60;;;;;;;19.65;45.18;94854.03;4985209;28;20305;-85
2023/01/17 09:37:36;;;;;;;4.10;3.07;;;;;;;19.03;45.24;94755.88;5012040;28;20213;-85
2023/01/17 09:40:02;;;;;;;3.80;3.33;;;;;;;18.40;45.46;94636.63;5007400;28;20202;-84
2023/01/17 09:42:34;;;;;;;3.87;3.47;;;;;;;18.04;45.25;94563.91;4983304;28;20648;-85
2023/01/17 09:45:01;;;;;;;3.77;3.10;;;;;;;18.76;45.60;94687.31;4978012;28;20287;-85
2023/01/17 09:47:41;;;;;;;5.33;3.60;;;;;;;19.38;45.46;94793.06;4966677;28;20194;-85
2023/01/17 09:50:24;;;;;;;3.77;3.20;;;;;;;19.67;45.43;94831.97;4981324;28;20208;-85
2023/01/17 09:53:00;;;;;;;3.67;2.97;;;;;;;19.39;45.24;94778.66;5009302;28;20198;-85
2023/01/17 09:55:30;;;;;;;3.90;2.97;;;;;;;19.39;43.34;94778.66;4970990;28;20313;-84
2023/01/17 09:58:25;;;;;;;3.17;2.80;;;;;;;19.05;43.54;94710.91;4984477;28;20223;-85
2023/01/17 10:00:57;;;;;;;3.07;2.73;;;;;;;18.70;43.88;94631.38;4987437;28;20202;-85
2023/01/17 10:03:39;;;;;;;4.40;3.23;;;;;;;19.65;44.63;94802.25;4986536;28;20293;-85
2023/01/17 10:06:15;;;;;;;2.53;2.33;;;;;;;19.33;44.63;94743.03;4990567;28;20244;-84
2023/01/17 10:09:02;;;;;;;4.13;2.83;;;;;;;19.64;44.84;94775.94;4990719;28;20201;-85
2023/01/17 10:11:52;;;;;;;2.70;2.50;;;;;;;19.63;44.97;94773.41;5000947;28;20221;-85
2023/01/17 10:14:25;;;;;;;3.57;2.80;;;;;;;19.62;45.43;94771.69;5004526;28;20218;-85
2023/01/17 10:16:56;;;;;;;2.43;2.20;;;;;;;19.27;45.05;94708.25;4999525;28;20199;-86
2023/01/17 10:19:44;;;;;;;2.70;2.50;;;;;;;19.64;45.38;94770.84;4970760;28;20205;-85
2023/01/17 10:22:29;;;;;;;3.60;2.90;;;;;;;19.63;45.35;94766.59;5002543;28;20206;-85
2023/01/17 10:25:24;;;;;;;3.57;2.70;;;;;;;19.64;45.28;94770.00;4998810;28;20218;-85
2023/01/17 10:28:17;;;;;;;2.83;2.60;;;;;;;19.13;45.30;94664.19;5000975;28;20204;-85
2023/01/17 10:30:48;;;;;;;3.17;2.57;;;;;;;19.47;45.17;94710.66;5006522;28;20245;-85
2023/01/17 10:33:18;;;;;;;3.47;2.70;;;;;;;19.66;45.17;94741.09;4976963;28;20198;-85
2023/01/17 10:35:54;;;;;;;2.50;2.10;;;;;;;19.33;45.18;94680.22;5007904;28;20647;-85
2023/01/17 10:38:22;;;;;;;2.57;2.37;;;;;;;19.66;45.20;94730.91;4971836;28;20211;-85
2023/01/17 10:40:53;;;;;;;2.60;2.40;;;;;;;19.63;45.32;94728.38;4971739;28;20205;-85
2023/01/17 10:43:35;;;;;;;3.30;2.37;;;;;;;19.09;45.32;94633.69;4966603;28;20222;-87
2023/01/17 10:46:02;;;;;;;3.50;2.80;;;;;;;19.09;46.06;94634.53;4990199;28;20226;-85
2023/01/17 10:48:35;;;;;;;3.67;2.40;;;;;;;19.16;45.53;94638.72;4994505;28;20202;-85
2023/01/17 10:51:25;;;;;;;2.83;2.50;;;;;;;19.67;45.32;94714.78;4986731;28;20237;-85
2023/01/17 10:54:03;;;;;;;5.03;2.60;;;;;;;19.68;45.40;94715.59;5001615;28;20195;-85
2023/01/17 10:56:30;;;;;;;3.10;2.37;;;;;;;19.37;45.41;94676.81;5014856;28;20229;-85
2023/01/17 10:59:19;;;;;;;3.10;2.80;;;;;;;19.64;45.68;94719.91;4983071;28;20230;-85
2023/01/17 11:01:45;;;;;;;2.50;2.27;;;;;;;19.19;45.56;94638.69;5010466;28;20200;-85
2023/01/17 11:04:29;;;;;;;3.00;2.33;;;;;;;19.69;45.61;94719.88;4988822;28;20234;-85
2023/01/17 11:07:25;;;;;;;3.57;2.63;;;;;;;18.83;45.73;94572.78;4999405;28;20206;-84
2023/01/17 11:09:53;;;;;;;2.47;2.27;;;;;;;19.05;45.43;94635.44;4985918;28;20218;-85
2023/01/17 11:12:27;;;;;;;4.23;2.13;;;;;;;19.69;45.67;94707.13;4987544;28;20294;-86
2023/01/17 11:14:57;;;;;;;3.00;2.37;;;;;;;19.69;45.71;94696.94;5009543;28;20302;-84
2023/01/17 11:17:24;;;;;;;2.53;2.27;;;;;;;18.99;45.85;94593.91;5009697;28;20687;-85
2023/01/17 11:19:51;;;;;;;3.27;2.73;;;;;;;18.85;45.95;94553.28;5014036;28;20281;-84
2023/01/17 11:22:17;;;;;;;3.17;2.53;;;;;;;19.70;45.53;94690.97;4978415;28;20599;-83
2023/01/17 11:24:48;;;;;;;2.83;2.40;;;;;;;19.70;45.98;94675.69;5011660;28;20226;-85
2023/01/17 11:27:28;;;;;;;2.73;2.20;;;;;;;19.40;45.76;94614.81;5003035;28;20202;-85
2023/01/17 11:30:17;;;;;;;3.10;2.50;;;;;;;19.65;45.96;94655.34;4963137;28;20550;-85
2023/01/17 11:33:05;;;;;;;2.60;2.00;;;;;;;19.37;45.90;94613.16;5002963;28;20209;-85
2023/01/17 11:35:42;;;;;;;2.70;2.23;;;;;;;19.70;45.88;94668.91;4977910;28;20298;-85
2023/01/17 11:38:17;;;;;;;3.20;2.20;;;;;;;19.10;45.88;94559.03;4985250;28;20292;-83
2023/01/17 11:40:45;;;;;;;2.20;2.00;;;;;;;18.97;45.97;94529.44;4989672;28;20289;-86
2023/01/17 11:43:13;;;;;;;3.60;2.20;;;;;;;19.70;46.06;94656.16;4995848;28;20337;-84
2023/01/17 11:45:39;;;;;;;3.53;2.30;;;;;;;19.71;45.99;94652.75;5000236;28;20222;-86
2023/01/17 11:48:12;;;;;;;2.67;2.43;;;;;;;19.71;46.12;94651.88;4981041;28;20210;-86
2023/01/17 11:50:56;;;;;;;2.40;2.20;;;;;;;19.23;45.98;94568.25;4998098;28;20195;-85
2023/01/17 11:53:23;;;;;;;2.50;2.03;;;;;;;19.71;46.22;94654.44;4970059;28;20198;-85
2023/01/17 11:56:02;;;;;;;2.73;2.00;;;;;;;19.72;46.11;94653.59;4997374;28;20214;-85
2023/01/17 11:58:29;;;;;;;3.30;2.47;;;;;;;18.14;46.20;94377.50;5001726;28;20619;-85
2023/01/17 12:01:16;;;;;;;2.93;2.20;;;;;;;19.35;46.28;94581.75;4990613;28;20653;-85
2023/01/17 12:03:45;;;;;;;2.97;2.10;;;;;;;19.72;46.20;94639.13;5001015;28;20261;-85
2023/01/17 12:06:30;;;;;;;3.80;2.10;;;;;;;19.73;46.18;94629.81;5025385;28;20233;-85
2023/01/17 12:09:12;;;;;;;7.90;2.10;;;;;;;19.38;46.20;94569.00;5001793;28;20645;-85
2023/01/17 12:14:43;;;;;;;5.80;1.73;;;;;;;19.75;46.21;94623.81;5010514;28;20214;-84
2023/01/17 12:17:10;;;;;;;6.03;2.27;;;;;;;19.75;46.25;94621.28;5003657;28;20821;-84
2023/01/17 12:19:59;;;;;;;3.37;2.10;;;;;;;19.75;46.19;94617.91;5007152;28;20291;-86
2023/01/17 12:23:12;;;;;;;5.10;2.40;;;;;;;19.76;46.34;94614.47;4974621;28;20611;-85
2023/01/17 12:26:00;;;;;;;5.13;1.97;;;;;;;19.76;46.36;94611.94;4981410;28;20301;-85
2023/01/17 12:28:45;;;;;;;6.50;1.97;;;;;;;18.36;46.37;94381.59;5009233;28;20202;-85
2023/01/17 12:31:20;;;;;;;3.13;1.80;;;;;;;19.76;46.35;94611.94;4981198;28;20202;-85
2023/01/17 12:34:12;;;;;;;2.80;2.00;;;;;;;19.75;46.26;94610.25;5014108;28;20202;-84
2023/01/17 12:36:48;;;;;;;2.10;1.90;;;;;;;19.76;46.39;94606.84;5008962;28;20222;-87
2023/01/17 12:39:15;;;;;;;3.67;2.10;;;;;;;18.47;46.29;94392.53;5007733;28;20249;-87
2023/01/17 12:42:01;;;;;;;11.23;2.47;;;;;;;19.75;45.95;94595.78;4976234;28;20203;-86
2023/01/17 12:44:44;;;;;;;4.67;2.33;;;;;;;19.38;44.99;94529.97;4997116;28;20222;-83
2023/01/17 12:47:10;;;;;;;2.43;1.93;;;;;;;19.08;41.71;94480.16;4985879;28;20286;-85
2023/01/17 12:49:53;;;;;;;2.13;1.70;;;;;;;19.10;39.61;94472.50;4994065;28;20205;-85
2023/01/17 12:52:51;;;;;;;4.03;1.90;;;;;;;19.69;38.60;94590.75;5012221;28;20580;-85
2023/01/17 12:55:22;;;;;;;3.33;1.73;;;;;;;18.45;38.22;94361.19;5010052;28;20253;-85
2023/01/17 12:57:53;;;;;;;3.17;1.77;;;;;;;19.11;38.77;94475.03;4993050;28;20195;-83
2023/01/17 13:00:21;;;;;;;3.57;1.70;;;;;;;19.04;39.61;94462.38;4987489;28;20289;-83
2023/01/17 13:03:07;;;;;;;2.77;1.70;;;;;;;19.64;40.51;94549.22;4991220;28;20212;-85
2023/01/17 13:05:39;;;;;;;6.03;2.13;;;;;;;18.24;40.70;94313.06;5004632;28;20252;-85
2023/01/17 13:08:16;;;;;;;3.37;1.70;;;;;;;19.65;41.19;94542.41;4984257;28;20203;-85
2023/01/17 13:10:47;;;;;;;2.33;1.60;;;;;;;19.02;41.29;94431.00;5008810;28;20203;-85
2023/01/17 13:13:18;;;;;;;3.27;1.80;;;;;;;19.64;42.14;94538.19;4980748;28;20218;-85
2023/01/17 13:15:45;;;;;;;3.77;2.00;;;;;;;18.98;42.16;94421.75;5011284;28;20756;-85
2023/01/17 13:18:21;;;;;;;1.30;1.20;;;;;;;19.27;42.43;94463.06;4982890;28;20257;-85